sensor_id;sensor_type;location;lat;lon;timestamp;pressure;altitude;pressure_sealevel;temperature;humidity
40592;BME280;26301;42.832;23.918;2023-03-26T00:01:28;92628.56;;;8.63;93.27
40592;BME280;26301;42.832;23.918;2023-03-26T00:03:58;92621.25;;;8.55;93.62
40592;BME280;26301;42.832;23.918;2023-03-26T00:06:28;92621.88;;;8.62;93.46
40592;BME280;26301;42.832;23.918;2023-03-26T00:08:56;92642.22;;;8.81;93.55
40592;BME280;26301;42.832;23.918;2023-03-26T00:11:23;92619.53;;;8.61;93.34
40592;BME280;26301;42.832;23.918;2023-03-26T00:13:49;92648.00;;;8.71;93.45
40592;BME280;26301;42.832;23.918;2023-03-26T00:16:19;92635.28;;;8.64;93.03
40592;BME280;26301;42.832;23.918;2023-03-26T00:18:45;92652.81;;;8.84;92.31
40592;BME280;26301;42.832;23.918;2023-03-26T00:21:14;92629.75;;;8.73;92.36
40592;BME280;26301;42.832;23.918;2023-03-26T00:23:40;92661.94;;;8.92;92.47
40592;BME280;26301;42.832;23.918;2023-03-26T00:26:06;92644.00;;;8.80;92.22
40592;BME280;26301;42.832;23.918;2023-03-26T00:28:37;92636.13;;;8.87;92.46
40592;BME280;26301;42.832;23.918;2023-03-26T00:31:05;92652.34;;;9.04;91.71
40592;BME280;26301;42.832;23.918;2023-03-26T00:33:32;92638.69;;;9.04;91.44
40592;BME280;26301;42.832;23.918;2023-03-26T00:36:04;92656.44;;;9.22;91.03
40592;BME280;26301;42.832;23.918;2023-03-26T00:38:31;92653.63;;;9.24;91.65
40592;BME280;26301;42.832;23.918;2023-03-26T00:41:00;92630.91;;;9.21;92.26
40592;BME280;26301;42.832;23.918;2023-03-26T00:43:31;92639.84;;;9.35;87.68
40592;BME280;26301;42.832;23.918;2023-03-26T00:45:57;92644.41;;;9.28;87.86
40592;BME280;26301;42.832;23.918;2023-03-26T00:48:23;92654.41;;;9.24;87.93
40592;BME280;26301;42.832;23.918;2023-03-26T00:50:49;92648.97;;;9.21;87.35
40592;BME280;26301;42.832;23.918;2023-03-26T00:53:16;92655.56;;;9.33;87.88
40592;BME280;26301;42.832;23.918;2023-03-26T00:55:43;92641.44;;;9.19;88.85
40592;BME280;26301;42.832;23.918;2023-03-26T00:58:11;92642.31;;;9.25;88.40
40592;BME280;26301;42.832;23.918;2023-03-26T01:00:50;92643.91;;;9.31;88.55
40592;BME280;26301;42.832;23.918;2023-03-26T01:03:17;92664.72;;;9.46;88.39
40592;BME280;26301;42.832;23.918;2023-03-26T01:05:59;92642.97;;;9.37;88.77
40592;BME280;26301;42.832;23.918;2023-03-26T01:08:40;92656.78;;;9.48;89.41
40592;BME280;26301;42.832;23.918;2023-03-26T01:11:10;92633.88;;;9.51;87.37
40592;BME280;26301;42.832;23.918;2023-03-26T01:13:40;92639.75;;;9.69;86.39
40592;BME280;26301;42.832;23.918;2023-03-26T01:16:14;92656.28;;;9.73;86.29
40592;BME280;26301;42.832;23.918;2023-03-26T01:18:45;92657.72;;;9.64;87.04
40592;BME280;26301;42.832;23.918;2023-03-26T01:21:11;92643.69;;;9.54;87.37
40592;BME280;26301;42.832;23.918;2023-03-26T01:23:49;92657.84;;;9.52;88.51
40592;BME280;26301;42.832;23.918;2023-03-26T01:28:55;92657.34;;;9.55;88.30
40592;BME280;26301;42.832;23.918;2023-03-26T01:31:29;92643.03;;;9.42;88.00
40592;BME280;26301;42.832;23.918;2023-03-26T01:34:17;92651.91;;;9.51;88.52
40592;BME280;26301;42.832;23.918;2023-03-26T01:40:11;92667.97;;;9.58;86.95
40592;BME280;26301;42.832;23.918;2023-03-26T01:42:47;92646.88;;;9.39;87.31
40592;BME280;26301;42.832;23.918;2023-03-26T01:45:23;92666.47;;;9.41;87.40
40592;BME280;26301;42.832;23.918;2023-03-26T01:47:51;92651.47;;;9.37;87.35
40592;BME280;26301;42.832;23.918;2023-03-26T01:50:17;92662.41;;;9.45;87.20
40592;BME280;26301;42.832;23.918;2023-03-26T01:52:43;92667.84;;;9.48;88.00
40592;BME280;26301;42.832;23.918;2023-03-26T01:55:09;92660.59;;;9.45;87.69
40592;BME280;26301;42.832;23.918;2023-03-26T02:00:31;92663.88;;;9.41;87.91
40592;BME280;26301;42.832;23.918;2023-03-26T02:08:37;92658.97;;;9.39;88.01
40592;BME280;26301;42.832;23.918;2023-03-26T02:11:11;92648.41;;;9.41;88.09
40592;BME280;26301;42.832;23.918;2023-03-26T02:13:39;92650.78;;;9.42;87.68
40592;BME280;26301;42.832;23.918;2023-03-26T02:16:08;92656.16;;;9.41;87.73
40592;BME280;26301;42.832;23.918;2023-03-26T02:18:33;92658.66;;;9.35;88.09
40592;BME280;26301;42.832;23.918;2023-03-26T02:26:59;92668.97;;;9.35;88.53
40592;BME280;26301;42.832;23.918;2023-03-26T02:29:26;92649.19;;;9.19;89.09
40592;BME280;26301;42.832;23.918;2023-03-26T02:31:52;92672.50;;;9.29;89.44
40592;BME280;26301;42.832;23.918;2023-03-26T02:34:17;92668.16;;;9.30;89.82
40592;BME280;26301;42.832;23.918;2023-03-26T02:36:44;92664.47;;;9.26;90.11
40592;BME280;26301;42.832;23.918;2023-03-26T02:39:10;92660.63;;;9.28;90.02
40592;BME280;26301;42.832;23.918;2023-03-26T02:41:39;92668.16;;;9.30;89.97
40592;BME280;26301;42.832;23.918;2023-03-26T02:44:04;92670.41;;;9.26;89.83
40592;BME280;26301;42.832;23.918;2023-03-26T02:46:32;92656.84;;;9.14;90.39
40592;BME280;26301;42.832;23.918;2023-03-26T02:48:57;92647.09;;;9.16;90.26
40592;BME280;26301;42.832;23.918;2023-03-26T02:51:23;92656.22;;;9.24;89.60
40592;BME280;26301;42.832;23.918;2023-03-26T02:53:49;92642.47;;;9.18;89.37
40592;BME280;26301;42.832;23.918;2023-03-26T02:56:17;92663.69;;;9.25;89.52
40592;BME280;26301;42.832;23.918;2023-03-26T02:58:46;92669.41;;;9.27;89.50
40592;BME280;26301;42.832;23.918;2023-03-26T03:01:13;92664.94;;;9.23;89.32
40592;BME280;26301;42.832;23.918;2023-03-26T03:03:42;92654.81;;;9.16;89.81
40592;BME280;26301;42.832;23.918;2023-03-26T03:06:08;92655.75;;;9.10;90.22
40592;BME280;26301;42.832;23.918;2023-03-26T03:08:34;92691.34;;;9.30;90.58
40592;BME280;26301;42.832;23.918;2023-03-26T03:11:09;92693.13;;;9.29;90.86
40592;BME280;26301;42.832;23.918;2023-03-26T03:13:35;92677.78;;;9.18;91.04
40592;BME280;26301;42.832;23.918;2023-03-26T03:16:01;92674.34;;;9.12;87.48
40592;BME280;26301;42.832;23.918;2023-03-26T03:18:26;92667.19;;;8.97;83.59
40592;BME280;26301;42.832;23.918;2023-03-26T03:20:52;92705.25;;;9.12;82.22
40592;BME280;26301;42.832;23.918;2023-03-26T03:23:20;92713.22;;;9.10;82.10
40592;BME280;26301;42.832;23.918;2023-03-26T03:25:46;92693.56;;;9.04;80.05
40592;BME280;26301;42.832;23.918;2023-03-26T03:28:13;92720.94;;;9.10;80.31
40592;BME280;26301;42.832;23.918;2023-03-26T03:30:39;92719.47;;;8.98;81.13
40592;BME280;26301;42.832;23.918;2023-03-26T03:33:05;92708.78;;;8.72;81.81
40592;BME280;26301;42.832;23.918;2023-03-26T03:35:30;92725.56;;;8.58;82.67
40592;BME280;26301;42.832;23.918;2023-03-26T03:37:58;92722.19;;;8.57;84.11
40592;BME280;26301;42.832;23.918;2023-03-26T03:40:24;92718.09;;;8.44;84.96
40592;BME280;26301;42.832;23.918;2023-03-26T03:42:50;92739.03;;;8.36;87.82
40592;BME280;26301;42.832;23.918;2023-03-26T03:45:16;92724.91;;;8.22;86.25
40592;BME280;26301;42.832;23.918;2023-03-26T03:47:41;92743.00;;;8.27;85.27
40592;BME280;26301;42.832;23.918;2023-03-26T03:50:08;92727.56;;;7.98;87.05
40592;BME280;26301;42.832;23.918;2023-03-26T03:52:34;92716.78;;;7.73;86.27
40592;BME280;26301;42.832;23.918;2023-03-26T03:55:00;92734.09;;;7.77;89.20
40592;BME280;26301;42.832;23.918;2023-03-26T03:57:28;92726.66;;;7.64;86.80
40592;BME280;26301;42.832;23.918;2023-03-26T03:59:56;92725.41;;;7.55;87.61
40592;BME280;26301;42.832;23.918;2023-03-26T04:02:23;92708.44;;;7.42;88.28
40592;BME280;26301;42.832;23.918;2023-03-26T04:07:33;92734.13;;;7.66;91.55
40592;BME280;26301;42.832;23.918;2023-03-26T04:09:59;92725.31;;;7.62;91.04
40592;BME280;26301;42.832;23.918;2023-03-26T04:12:28;92733.00;;;7.73;92.20
40592;BME280;26301;42.832;23.918;2023-03-26T04:14:54;92735.78;;;7.72;94.08
40592;BME280;26301;42.832;23.918;2023-03-26T04:17:20;92751.19;;;7.84;94.66
40592;BME280;26301;42.832;23.918;2023-03-26T04:19:47;92745.50;;;7.70;86.77
40592;BME280;26301;42.832;23.918;2023-03-26T04:22:15;92755.47;;;7.66;88.03
40592;BME280;26301;42.832;23.918;2023-03-26T04:24:42;92766.75;;;7.77;91.62
40592;BME280;26301;42.832;23.918;2023-03-26T04:27:11;92746.88;;;7.61;92.66
40592;BME280;26301;42.832;23.918;2023-03-26T04:29:44;92764.19;;;7.53;93.70
40592;BME280;26301;42.832;23.918;2023-03-26T04:32:27;92787.66;;;7.57;90.85
40592;BME280;26301;42.832;23.918;2023-03-26T04:35:01;92789.44;;;7.56;88.43
40592;BME280;26301;42.832;23.918;2023-03-26T04:37:32;92789.00;;;7.60;90.53
40592;BME280;26301;42.832;23.918;2023-03-26T04:40:00;92780.84;;;7.51;92.45
40592;BME280;26301;42.832;23.918;2023-03-26T04:42:27;92779.06;;;7.51;91.60
40592;BME280;26301;42.832;23.918;2023-03-26T04:44:53;92788.09;;;7.54;91.28
40592;BME280;26301;42.832;23.918;2023-03-26T04:47:18;92811.25;;;7.66;91.37
40592;BME280;26301;42.832;23.918;2023-03-26T04:49:45;92809.34;;;7.61;91.15
40592;BME280;26301;42.832;23.918;2023-03-26T04:52:12;92768.91;;;7.33;91.64
40592;BME280;26301;42.832;23.918;2023-03-26T04:54:38;92815.28;;;7.73;91.55
40592;BME280;26301;42.832;23.918;2023-03-26T04:57:13;92815.59;;;7.65;91.71
40592;BME280;26301;42.832;23.918;2023-03-26T04:59:41;92805.13;;;7.43;92.33
40592;BME280;26301;42.832;23.918;2023-03-26T05:02:07;92800.97;;;7.42;92.47
40592;BME280;26301;42.832;23.918;2023-03-26T05:04:33;92794.47;;;7.40;92.55
40592;BME280;26301;42.832;23.918;2023-03-26T05:07:03;92820.28;;;7.33;91.83
40592;BME280;26301;42.832;23.918;2023-03-26T05:09:29;92813.09;;;7.00;92.09
40592;BME280;26301;42.832;23.918;2023-03-26T05:11:55;92809.97;;;6.98;91.65
40592;BME280;26301;42.832;23.918;2023-03-26T05:14:22;92836.34;;;7.17;91.48
40592;BME280;26301;42.832;23.918;2023-03-26T05:16:48;92819.56;;;7.02;91.33
40592;BME280;26301;42.832;23.918;2023-03-26T05:19:17;92826.84;;;7.05;91.56
40592;BME280;26301;42.832;23.918;2023-03-26T05:21:43;92846.97;;;7.20;92.05
40592;BME280;26301;42.832;23.918;2023-03-26T05:24:09;92850.44;;;7.26;92.46
40592;BME280;26301;42.832;23.918;2023-03-26T05:26:43;92849.31;;;7.22;91.05
40592;BME280;26301;42.832;23.918;2023-03-26T05:31:44;92844.78;;;6.94;86.14
40592;BME280;26301;42.832;23.918;2023-03-26T05:34:10;92838.84;;;6.81;91.55
40592;BME280;26301;42.832;23.918;2023-03-26T05:36:38;92836.06;;;6.95;92.19
40592;BME280;26301;42.832;23.918;2023-03-26T05:39:03;92841.91;;;7.02;93.53
40592;BME280;26301;42.832;23.918;2023-03-26T05:41:29;92820.03;;;7.11;93.64
40592;BME280;26301;42.832;23.918;2023-03-26T05:43:54;92833.38;;;7.31;97.18
40592;BME280;26301;42.832;23.918;2023-03-26T05:46:20;92832.56;;;7.43;95.00
40592;BME280;26301;42.832;23.918;2023-03-26T05:48:47;92834.25;;;7.49;95.50
40592;BME280;26301;42.832;23.918;2023-03-26T05:51:13;92848.56;;;7.68;95.97
40592;BME280;26301;42.832;23.918;2023-03-26T05:53:42;92837.06;;;7.59;80.53
40592;BME280;26301;42.832;23.918;2023-03-26T05:56:08;92848.31;;;7.82;76.76
40592;BME280;26301;42.832;23.918;2023-03-26T05:58:34;92854.03;;;7.95;78.87
40592;BME280;26301;42.832;23.918;2023-03-26T06:03:30;92830.84;;;8.19;69.09
40592;BME280;26301;42.832;23.918;2023-03-26T06:05:56;92831.13;;;8.34;71.42
40592;BME280;26301;42.832;23.918;2023-03-26T06:08:21;92836.09;;;8.64;71.82
40592;BME280;26301;42.832;23.918;2023-03-26T06:10:47;92847.75;;;8.84;71.35
40592;BME280;26301;42.832;23.918;2023-03-26T06:13:15;92824.84;;;8.99;72.46
40592;BME280;26301;42.832;23.918;2023-03-26T06:15:41;92836.91;;;9.27;68.79
40592;BME280;26301;42.832;23.918;2023-03-26T06:18:07;92848.84;;;9.50;67.33
40592;BME280;26301;42.832;23.918;2023-03-26T06:20:32;92822.44;;;9.60;66.86
40592;BME280;26301;42.832;23.918;2023-03-26T06:22:58;92854.34;;;9.93;68.78
40592;BME280;26301;42.832;23.918;2023-03-26T06:25:23;92847.34;;;10.10;64.06
40592;BME280;26301;42.832;23.918;2023-03-26T06:27:49;92837.75;;;10.05;60.75
40592;BME280;26301;42.832;23.918;2023-03-26T06:30:15;92847.34;;;10.10;58.87
40592;BME280;26301;42.832;23.918;2023-03-26T06:32:41;92865.03;;;10.01;59.16
40592;BME280;26301;42.832;23.918;2023-03-26T06:35:06;92834.22;;;10.12;59.68
40592;BME280;26301;42.832;23.918;2023-03-26T06:37:32;92848.88;;;10.06;57.78
40592;BME280;26301;42.832;23.918;2023-03-26T06:39:58;92836.91;;;10.00;57.60
40592;BME280;26301;42.832;23.918;2023-03-26T06:42:23;92846.69;;;10.20;54.68
40592;BME280;26301;42.832;23.918;2023-03-26T06:44:49;92865.41;;;10.27;54.41
40592;BME280;26301;42.832;23.918;2023-03-26T06:47:15;92842.63;;;10.24;55.03
40592;BME280;26301;42.832;23.918;2023-03-26T06:49:41;92854.31;;;10.26;53.12
40592;BME280;26301;42.832;23.918;2023-03-26T06:52:06;92858.69;;;10.26;53.89
40592;BME280;26301;42.832;23.918;2023-03-26T06:54:32;92849.53;;;10.35;57.12
40592;BME280;26301;42.832;23.918;2023-03-26T06:56:57;92833.22;;;10.57;53.50
40592;BME280;26301;42.832;23.918;2023-03-26T06:59:24;92846.66;;;10.81;58.83
40592;BME280;26301;42.832;23.918;2023-03-26T07:01:50;92848.75;;;10.84;54.51
40592;BME280;26301;42.832;23.918;2023-03-26T07:04:17;92836.47;;;10.69;51.75
40592;BME280;26301;42.832;23.918;2023-03-26T07:06:43;92853.44;;;10.87;53.00
40592;BME280;26301;42.832;23.918;2023-03-26T07:09:10;92855.13;;;11.03;51.49
40592;BME280;26301;42.832;23.918;2023-03-26T07:11:35;92856.84;;;10.92;52.86
40592;BME280;26301;42.832;23.918;2023-03-26T07:14:01;92848.59;;;11.23;48.82
40592;BME280;26301;42.832;23.918;2023-03-26T07:16:27;92834.56;;;11.13;49.50
40592;BME280;26301;42.832;23.918;2023-03-26T07:18:52;92828.41;;;11.19;52.19
40592;BME280;26301;42.832;23.918;2023-03-26T07:21:20;92826.47;;;11.37;50.08
40592;BME280;26301;42.832;23.918;2023-03-26T07:23:46;92843.28;;;11.39;47.79
40592;BME280;26301;42.832;23.918;2023-03-26T07:29:04;92832.63;;;11.63;47.57
40592;BME280;26301;42.832;23.918;2023-03-26T07:31:44;92827.41;;;11.58;49.45
40592;BME280;26301;42.832;23.918;2023-03-26T07:34:16;92829.47;;;11.93;50.10
40592;BME280;26301;42.832;23.918;2023-03-26T07:39:51;92831.75;;;12.42;50.63
40592;BME280;26301;42.832;23.918;2023-03-26T07:45:42;92836.44;;;12.45;44.27
40592;BME280;26301;42.832;23.918;2023-03-26T07:48:19;92838.28;;;11.97;44.66
40592;BME280;26301;42.832;23.918;2023-03-26T07:50:47;92831.69;;;12.22;45.57
40592;BME280;26301;42.832;23.918;2023-03-26T07:53:13;92829.47;;;12.46;46.03
40592;BME280;26301;42.832;23.918;2023-03-26T07:58:21;92846.03;;;12.40;44.61
40592;BME280;26301;42.832;23.918;2023-03-26T08:06:19;92830.56;;;12.75;41.04
40592;BME280;26301;42.832;23.918;2023-03-26T08:09:22;92831.88;;;12.78;41.35
40592;BME280;26301;42.832;23.918;2023-03-26T08:11:57;92831.63;;;12.79;43.18
40592;BME280;26301;42.832;23.918;2023-03-26T08:19:43;92818.16;;;12.82;41.57
40592;BME280;26301;42.832;23.918;2023-03-26T08:22:18;92821.00;;;12.81;41.51
40592;BME280;26301;42.832;23.918;2023-03-26T08:25:17;92833.00;;;13.18;40.76
40592;BME280;26301;42.832;23.918;2023-03-26T08:30:27;92823.16;;;13.35;40.67
40592;BME280;26301;42.832;23.918;2023-03-26T08:32:58;92827.84;;;13.33;42.51
40592;BME280;26301;42.832;23.918;2023-03-26T08:35:25;92828.84;;;13.12;40.64
40592;BME280;26301;42.832;23.918;2023-03-26T08:37:51;92827.25;;;13.05;41.20
40592;BME280;26301;42.832;23.918;2023-03-26T08:46:10;92825.16;;;12.77;40.96
40592;BME280;26301;42.832;23.918;2023-03-26T09:15:33;92816.91;;;13.77;37.95
40592;BME280;26301;42.832;23.918;2023-03-26T09:24:21;92801.03;;;14.04;39.88
40592;BME280;26301;42.832;23.918;2023-03-26T09:40:16;92786.22;;;14.10;38.78
40592;BME280;26301;42.832;23.918;2023-03-26T09:42:43;92791.41;;;14.05;40.26
40592;BME280;26301;42.832;23.918;2023-03-26T09:57:05;92789.97;;;13.42;38.92
40592;BME280;26301;42.832;23.918;2023-03-26T10:19:36;92750.25;;;13.62;37.47
40592;BME280;26301;42.832;23.918;2023-03-26T10:22:19;92745.34;;;13.50;37.71
40592;BME280;26301;42.832;23.918;2023-03-26T11:55:43;92647.50;;;14.66;33.99
40592;BME280;26301;42.832;23.918;2023-03-26T12:00:53;92635.31;;;14.56;33.31
40592;BME280;26301;42.832;23.918;2023-03-26T12:03:18;92608.44;;;14.31;32.42
40592;BME280;26301;42.832;23.918;2023-03-26T12:05:50;92617.13;;;14.56;34.07
40592;BME280;26301;42.832;23.918;2023-03-26T12:08:29;92601.13;;;14.78;32.78
40592;BME280;26301;42.832;23.918;2023-03-26T12:11:07;92584.38;;;14.60;33.77
40592;BME280;26301;42.832;23.918;2023-03-26T12:13:38;92584.25;;;14.75;32.89
40592;BME280;26301;42.832;23.918;2023-03-26T12:16:18;92588.38;;;14.76;34.12
40592;BME280;26301;42.832;23.918;2023-03-26T12:18:45;92593.47;;;14.62;32.42
40592;BME280;26301;42.832;23.918;2023-03-26T12:21:14;92577.78;;;14.68;33.76
40592;BME280;26301;42.832;23.918;2023-03-26T12:24:00;92556.38;;;14.47;33.49
40592;BME280;26301;42.832;23.918;2023-03-26T12:29:05;92573.06;;;14.40;34.79
40592;BME280;26301;42.832;23.918;2023-03-26T12:31:40;92582.59;;;14.55;33.78
40592;BME280;26301;42.832;23.918;2023-03-26T12:34:17;92557.38;;;14.56;33.70
40592;BME280;26301;42.832;23.918;2023-03-26T12:36:54;92584.03;;;14.72;32.80
40592;BME280;26301;42.832;23.918;2023-03-26T12:39:36;92585.34;;;14.69;33.11
40592;BME280;26301;42.832;23.918;2023-03-26T12:56:00;92544.78;;;15.64;31.71
40592;BME280;26301;42.832;23.918;2023-03-26T13:06:50;92553.28;;;15.27;31.25
40592;BME280;26301;42.832;23.918;2023-03-26T13:17:58;92552.47;;;15.07;32.60
40592;BME280;26301;42.832;23.918;2023-03-26T13:20:44;92558.88;;;15.15;33.98
40592;BME280;26301;42.832;23.918;2023-03-26T13:29:11;92528.50;;;15.35;30.98
40592;BME280;26301;42.832;23.918;2023-03-26T13:37:25;92504.78;;;15.36;31.27
40592;BME280;26301;42.832;23.918;2023-03-26T13:40:00;92528.31;;;15.50;31.66
40592;BME280;26301;42.832;23.918;2023-03-26T13:42:47;92531.22;;;15.43;30.52
40592;BME280;26301;42.832;23.918;2023-03-26T13:47:54;92513.94;;;15.33;32.44
40592;BME280;26301;42.832;23.918;2023-03-26T13:50:32;92528.78;;;15.52;32.37
40592;BME280;26301;42.832;23.918;2023-03-26T13:53:05;92534.63;;;15.44;31.66
40592;BME280;26301;42.832;23.918;2023-03-26T13:58:37;92533.91;;;15.38;30.92
40592;BME280;26301;42.832;23.918;2023-03-26T14:01:19;92527.38;;;15.41;29.57
40592;BME280;26301;42.832;23.918;2023-03-26T14:03:53;92524.50;;;15.42;33.69
40592;BME280;26301;42.832;23.918;2023-03-26T14:09:25;92538.53;;;15.65;32.36
40592;BME280;26301;42.832;23.918;2023-03-26T14:14:44;92538.00;;;15.68;31.92
40592;BME280;26301;42.832;23.918;2023-03-26T14:17:18;92535.41;;;15.63;33.20
40592;BME280;26301;42.832;23.918;2023-03-26T14:26:00;92521.47;;;15.54;32.36
40592;BME280;26301;42.832;23.918;2023-03-26T14:31:14;92520.41;;;15.55;31.23
40592;BME280;26301;42.832;23.918;2023-03-26T14:41:51;92493.72;;;15.49;30.73
40592;BME280;26301;42.832;23.918;2023-03-26T14:44:28;92512.91;;;15.53;32.00
40592;BME280;26301;42.832;23.918;2023-03-26T14:47:20;92504.03;;;15.54;32.05
40592;BME280;26301;42.832;23.918;2023-03-26T14:55:14;92494.47;;;15.50;32.15
40592;BME280;26301;42.832;23.918;2023-03-26T15:13:58;92508.81;;;15.66;33.09
40592;BME280;26301;42.832;23.918;2023-03-26T15:22:50;92510.66;;;15.66;33.45
40592;BME280;26301;42.832;23.918;2023-03-26T15:25:45;92516.34;;;15.49;33.59
40592;BME280;26301;42.832;23.918;2023-03-26T15:39:45;92523.47;;;14.95;35.18
40592;BME280;26301;42.832;23.918;2023-03-26T15:42:47;92518.53;;;14.94;34.35
40592;BME280;26301;42.832;23.918;2023-03-26T15:45:45;92522.84;;;14.79;34.52
40592;BME280;26301;42.832;23.918;2023-03-26T15:51:36;92534.09;;;14.40;34.74
40592;BME280;26301;42.832;23.918;2023-03-26T16:02:41;92556.41;;;14.07;38.95
40592;BME280;26301;42.832;23.918;2023-03-26T16:10:59;92553.16;;;13.86;41.95
40592;BME280;26301;42.832;23.918;2023-03-26T16:13:42;92535.38;;;13.69;42.68
40592;BME280;26301;42.832;23.918;2023-03-26T16:18:43;92553.78;;;13.68;44.69
40592;BME280;26301;42.832;23.918;2023-03-26T16:21:35;92538.84;;;13.44;44.58
40592;BME280;26301;42.832;23.918;2023-03-26T16:29:15;92555.00;;;13.26;45.25
40592;BME280;26301;42.832;23.918;2023-03-26T16:50:43;92582.56;;;11.89;47.09
40592;BME280;26301;42.832;23.918;2023-03-26T16:53:26;92586.38;;;11.76;49.33
40592;BME280;26301;42.832;23.918;2023-03-26T16:55:59;92573.41;;;11.61;49.07
40592;BME280;26301;42.832;23.918;2023-03-26T16:58:34;92567.16;;;11.41;49.46
40592;BME280;26301;42.832;23.918;2023-03-26T17:04:11;92590.06;;;11.17;51.35
40592;BME280;26301;42.832;23.918;2023-03-26T17:07:14;92593.38;;;11.08;51.72
40592;BME280;26301;42.832;23.918;2023-03-26T17:12:19;92608.25;;;10.90;53.14
40592;BME280;26301;42.832;23.918;2023-03-26T17:15:15;92607.19;;;10.81;53.01
40592;BME280;26301;42.832;23.918;2023-03-26T17:25:54;92618.03;;;9.92;55.41
40592;BME280;26301;42.832;23.918;2023-03-26T17:33:45;92623.06;;;9.32;56.70
40592;BME280;26301;42.832;23.918;2023-03-26T17:36:13;92631.06;;;9.14;56.83
40592;BME280;26301;42.832;23.918;2023-03-26T17:41:09;92616.75;;;8.84;57.64
40592;BME280;26301;42.832;23.918;2023-03-26T17:43:48;92633.31;;;8.88;57.67
40592;BME280;26301;42.832;23.918;2023-03-26T17:46:22;92635.03;;;8.83;57.67
40592;BME280;26301;42.832;23.918;2023-03-26T17:49:17;92636.22;;;8.75;58.28
40592;BME280;26301;42.832;23.918;2023-03-26T17:54:33;92632.25;;;8.51;57.35
40592;BME280;26301;42.832;23.918;2023-03-26T17:57:09;92632.50;;;8.49;58.82
40592;BME280;26301;42.832;23.918;2023-03-26T17:59:39;92613.75;;;8.37;58.54
40592;BME280;26301;42.832;23.918;2023-03-26T18:02:13;92612.41;;;8.34;58.09
40592;BME280;26301;42.832;23.918;2023-03-26T18:04:42;92612.72;;;8.38;58.28
40592;BME280;26301;42.832;23.918;2023-03-26T18:18:30;92627.81;;;8.00;61.45
40592;BME280;26301;42.832;23.918;2023-03-26T18:20:58;92609.91;;;7.77;62.63
40592;BME280;26301;42.832;23.918;2023-03-26T18:23:45;92618.25;;;7.84;62.08
40592;BME280;26301;42.832;23.918;2023-03-26T18:26:15;92618.72;;;7.81;63.90
40592;BME280;26301;42.832;23.918;2023-03-26T18:28:48;92629.06;;;7.69;63.07
40592;BME280;26301;42.832;23.918;2023-03-26T18:31:19;92603.84;;;7.54;62.76
40592;BME280;26301;42.832;23.918;2023-03-26T18:33:49;92605.31;;;7.50;62.67
40592;BME280;26301;42.832;23.918;2023-03-26T18:36:16;92613.78;;;7.63;63.49
40592;BME280;26301;42.832;23.918;2023-03-26T18:38:44;92614.84;;;7.67;64.24
40592;BME280;26301;42.832;23.918;2023-03-26T18:41:35;92616.13;;;7.64;63.65
40592;BME280;26301;42.832;23.918;2023-03-26T18:44:05;92608.41;;;7.64;63.75
40592;BME280;26301;42.832;23.918;2023-03-26T18:46:32;92605.59;;;7.66;63.62
40592;BME280;26301;42.832;23.918;2023-03-26T18:49:01;92591.31;;;7.58;63.24
40592;BME280;26301;42.832;23.918;2023-03-26T18:51:27;92579.84;;;7.49;63.54
40592;BME280;26301;42.832;23.918;2023-03-26T18:54:04;92588.16;;;7.39;63.71
40592;BME280;26301;42.832;23.918;2023-03-26T18:56:38;92589.84;;;7.33;63.95
40592;BME280;26301;42.832;23.918;2023-03-26T18:59:24;92582.97;;;7.22;63.80
40592;BME280;26301;42.832;23.918;2023-03-26T19:02:18;92567.47;;;7.05;63.58
40592;BME280;26301;42.832;23.918;2023-03-26T19:04:43;92582.22;;;7.10;65.27
40592;BME280;26301;42.832;23.918;2023-03-26T19:07:12;92558.56;;;6.96;66.83
40592;BME280;26301;42.832;23.918;2023-03-26T19:09:41;92548.28;;;6.96;66.89
40592;BME280;26301;42.832;23.918;2023-03-26T19:12:28;92557.88;;;7.01;66.85
40592;BME280;26301;42.832;23.918;2023-03-26T19:15:15;92563.69;;;6.96;66.33
40592;BME280;26301;42.832;23.918;2023-03-26T19:17:44;92548.31;;;6.84;66.27
40592;BME280;26301;42.832;23.918;2023-03-26T19:20:17;92551.66;;;6.85;67.73
40592;BME280;26301;42.832;23.918;2023-03-26T19:22:45;92539.22;;;6.65;66.43
40592;BME280;26301;42.832;23.918;2023-03-26T19:25:27;92545.44;;;6.81;65.49
40592;BME280;26301;42.832;23.918;2023-03-26T19:27:54;92551.78;;;6.78;66.14
40592;BME280;26301;42.832;23.918;2023-03-26T19:30:29;92534.28;;;6.63;70.25
40592;BME280;26301;42.832;23.918;2023-03-26T19:33:13;92550.91;;;6.73;69.73
40592;BME280;26301;42.832;23.918;2023-03-26T19:35:41;92548.56;;;6.71;69.07
40592;BME280;26301;42.832;23.918;2023-03-26T19:38:24;92546.09;;;6.64;67.70
40592;BME280;26301;42.832;23.918;2023-03-26T19:40:52;92529.28;;;6.45;68.02
40592;BME280;26301;42.832;23.918;2023-03-26T19:43:19;92539.53;;;6.57;68.71
40592;BME280;26301;42.832;23.918;2023-03-26T19:45:45;92532.41;;;6.59;69.36
40592;BME280;26301;42.832;23.918;2023-03-26T19:48:16;92536.84;;;6.63;70.32
40592;BME280;26301;42.832;23.918;2023-03-26T19:50:53;92532.88;;;6.56;68.45
40592;BME280;26301;42.832;23.918;2023-03-26T19:53:22;92515.56;;;6.39;68.35
40592;BME280;26301;42.832;23.918;2023-03-26T19:58:38;92519.47;;;6.54;69.67
40592;BME280;26301;42.832;23.918;2023-03-26T20:01:04;92514.91;;;6.44;67.78
40592;BME280;26301;42.832;23.918;2023-03-26T20:03:39;92496.72;;;6.34;67.84
40592;BME280;26301;42.832;23.918;2023-03-26T20:06:10;92502.63;;;6.34;67.87
40592;BME280;26301;42.832;23.918;2023-03-26T20:08:36;92516.47;;;6.45;67.69
40592;BME280;26301;42.832;23.918;2023-03-26T20:11:08;92519.59;;;6.47;67.14
40592;BME280;26301;42.832;23.918;2023-03-26T20:13:37;92500.75;;;6.30;67.41
40592;BME280;26301;42.832;23.918;2023-03-26T20:16:28;92513.69;;;6.35;67.56
40592;BME280;26301;42.832;23.918;2023-03-26T20:18:54;92501.31;;;6.20;66.67
40592;BME280;26301;42.832;23.918;2023-03-26T20:21:27;92485.94;;;6.20;67.50
40592;BME280;26301;42.832;23.918;2023-03-26T20:23:53;92497.63;;;6.28;68.21